sensor_id;sensor_type;location;lat;lon;timestamp;temperature;humidity
66835;HTU21D;53743;51.100;5.874;2022-12-19T00:00:19;1.90;99.56
66835;HTU21D;53743;51.100;5.874;2022-12-19T00:01:26;1.86;100.38
66835;HTU21D;53743;51.100;5.874;2022-12-19T00:02:27;1.82;100.79
66835;HTU21D;53743;51.100;5.874;2022-12-19T00:03:27;1.85;100.54
66835;HTU21D;53743;51.100;5.874;2022-12-19T00:04:28;1.85;100.40
66835;HTU21D;53743;51.100;5.874;2022-12-19T00:05:29;1.87;100.35
66835;HTU21D;53743;51.100;5.874;2022-12-19T00:06:30;1.90;100.12
66835;HTU21D;53743;51.100;5.874;2022-12-19T00:07:30;1.93;99.70
66835;HTU21D;53743;51.100;5.874;2022-12-19T00:08:31;1.92;100.42
66835;HTU21D;53743;51.100;5.874;2022-12-19T00:09:32;1.92;100.46
66835;HTU21D;53743;51.100;5.874;2022-12-19T00:10:32;1.93;100.11
66835;HTU21D;53743;51.100;5.874;2022-12-19T00:11:34;1.96;100.00
66835;HTU21D;53743;51.100;5.874;2022-12-19T00:12:34;1.96;100.43
66835;HTU21D;53743;51.100;5.874;2022-12-19T00:13:35;1.97;100.15
66835;HTU21D;53743;51.100;5.874;2022-12-19T00:14:36;2.00;99.83
66835;HTU21D;53743;51.100;5.874;2022-12-19T00:15:37;1.98;100.39
66835;HTU21D;53743;51.100;5.874;2022-12-19T00:16:37;2.02;99.73
66835;HTU21D;53743;51.100;5.874;2022-12-19T00:17:38;2.03;99.98
66835;HTU21D;53743;51.100;5.874;2022-12-19T00:18:44;2.01;100.35
66835;HTU21D;53743;51.100;5.874;2022-12-19T00:19:45;2.02;100.38
66835;HTU21D;53743;51.100;5.874;2022-12-19T00:20:56;2.05;100.09
66835;HTU21D;53743;51.100;5.874;2022-12-19T00:21:57;2.02;100.73
66835;HTU21D;53743;51.100;5.874;2022-12-19T00:22:58;2.03;100.83
66835;HTU21D;53743;51.100;5.874;2022-12-19T00:23:58;2.02;100.89
66835;HTU21D;53743;51.100;5.874;2022-12-19T00:24:59;2.01;101.12
66835;HTU21D;53743;51.100;5.874;2022-12-19T00:27:08;2.06;100.93
66835;HTU21D;53743;51.100;5.874;2022-12-19T00:28:08;2.01;101.46
66835;HTU21D;53743;51.100;5.874;2022-12-19T00:29:09;2.03;101.25
66835;HTU21D;53743;51.100;5.874;2022-12-19T00:30:10;2.08;100.62
66835;HTU21D;53743;51.100;5.874;2022-12-19T00:31:11;2.08;100.96
66835;HTU21D;53743;51.100;5.874;2022-12-19T00:32:12;2.07;101.15
66835;HTU21D;53743;51.100;5.874;2022-12-19T00:33:13;2.10;100.76
66835;HTU21D;53743;51.100;5.874;2022-12-19T00:34:14;2.08;101.13
66835;HTU21D;53743;51.100;5.874;2022-12-19T00:35:15;2.09;101.17
66835;HTU21D;53743;51.100;5.874;2022-12-19T00:36:22;2.10;101.31
66835;HTU21D;53743;51.100;5.874;2022-12-19T00:37:23;2.10;101.48
66835;HTU21D;53743;51.100;5.874;2022-12-19T00:38:24;2.09;101.59
66835;HTU21D;53743;51.100;5.874;2022-12-19T00:39:24;2.05;101.97
66835;HTU21D;53743;51.100;5.874;2022-12-19T00:40:25;2.06;101.85
66835;HTU21D;53743;51.100;5.874;2022-12-19T00:41:28;2.05;102.13
66835;HTU21D;53743;51.100;5.874;2022-12-19T00:42:29;2.10;101.56
66835;HTU21D;53743;51.100;5.874;2022-12-19T00:43:30;2.03;102.28
66835;HTU21D;53743;51.100;5.874;2022-12-19T00:44:30;2.02;102.44
66835;HTU21D;53743;51.100;5.874;2022-12-19T00:45:32;2.07;102.22
66835;HTU21D;53743;51.100;5.874;2022-12-19T00:46:34;2.15;101.52
66835;HTU21D;53743;51.100;5.874;2022-12-19T00:47:34;2.08;102.03
66835;HTU21D;53743;51.100;5.874;2022-12-19T00:48:35;2.07;102.41
66835;HTU21D;53743;51.100;5.874;2022-12-19T00:49:36;2.12;101.92
66835;HTU21D;53743;51.100;5.874;2022-12-19T00:50:37;2.15;101.63
66835;HTU21D;53743;51.100;5.874;2022-12-19T00:51:37;2.14;101.83
66835;HTU21D;53743;51.100;5.874;2022-12-19T00:52:41;2.19;101.58
66835;HTU21D;53743;51.100;5.874;2022-12-19T00:53:43;2.16;101.70
66835;HTU21D;53743;51.100;5.874;2022-12-19T00:54:44;2.12;102.05
66835;HTU21D;53743;51.100;5.874;2022-12-19T00:55:45;2.13;102.25
66835;HTU21D;53743;51.100;5.874;2022-12-19T00:56:45;2.17;101.94
66835;HTU21D;53743;51.100;5.874;2022-12-19T00:57:46;2.19;101.96
66835;HTU21D;53743;51.100;5.874;2022-12-19T00:58:46;2.21;101.93
66835;HTU21D;53743;51.100;5.874;2022-12-19T00:59:47;2.24;101.57
66835;HTU21D;53743;51.100;5.874;2022-12-19T01:00:48;2.28;101.68
66835;HTU21D;53743;51.100;5.874;2022-12-19T01:01:48;2.24;102.21
66835;HTU21D;53743;51.100;5.874;2022-12-19T01:02:49;2.25;102.32
66835;HTU21D;53743;51.100;5.874;2022-12-19T01:03:50;2.27;102.13
66835;HTU21D;53743;51.100;5.874;2022-12-19T01:04:50;2.28;102.08
66835;HTU21D;53743;51.100;5.874;2022-12-19T01:05:51;2.25;102.61
66835;HTU21D;53743;51.100;5.874;2022-12-19T01:06:52;2.26;102.74
66835;HTU21D;53743;51.100;5.874;2022-12-19T01:07:53;2.27;102.72
66835;HTU21D;53743;51.100;5.874;2022-12-19T01:08:54;2.28;102.73
66835;HTU21D;53743;51.100;5.874;2022-12-19T01:09:56;2.32;102.54
66835;HTU21D;53743;51.100;5.874;2022-12-19T01:10:58;2.35;102.48
66835;HTU21D;53743;51.100;5.874;2022-12-19T01:11:59;2.40;102.35
66835;HTU21D;53743;51.100;5.874;2022-12-19T01:13:21;2.42;102.30
66835;HTU21D;53743;51.100;5.874;2022-12-19T01:14:22;2.45;102.39
66835;HTU21D;53743;51.100;5.874;2022-12-19T01:15:23;2.46;102.38
66835;HTU21D;53743;51.100;5.874;2022-12-19T01:16:23;2.51;102.03
66835;HTU21D;53743;51.100;5.874;2022-12-19T01:17:25;2.54;102.23
66835;HTU21D;53743;51.100;5.874;2022-12-19T01:18:27;2.57;102.00
66835;HTU21D;53743;51.100;5.874;2022-12-19T01:19:28;2.62;101.83
66835;HTU21D;53743;51.100;5.874;2022-12-19T01:20:28;2.67;101.76
66835;HTU21D;53743;51.100;5.874;2022-12-19T01:21:29;2.70;101.76
66835;HTU21D;53743;51.100;5.874;2022-12-19T01:22:29;2.71;101.93
66835;HTU21D;53743;51.100;5.874;2022-12-19T01:23:30;2.73;102.00
66835;HTU21D;53743;51.100;5.874;2022-12-19T01:24:31;2.81;101.72
66835;HTU21D;53743;51.100;5.874;2022-12-19T01:25:33;2.83;101.54
66835;HTU21D;53743;51.100;5.874;2022-12-19T01:26:34;2.83;101.91
66835;HTU21D;53743;51.100;5.874;2022-12-19T01:27:34;2.88;101.60
66835;HTU21D;53743;51.100;5.874;2022-12-19T01:28:35;2.91;101.64
66835;HTU21D;53743;51.100;5.874;2022-12-19T01:29:35;2.95;101.64
66835;HTU21D;53743;51.100;5.874;2022-12-19T01:30:38;3.00;101.47
66835;HTU21D;53743;51.100;5.874;2022-12-19T01:31:39;3.02;101.44
66835;HTU21D;53743;51.100;5.874;2022-12-19T01:32:40;3.05;101.10
66835;HTU21D;53743;51.100;5.874;2022-12-19T01:33:41;3.08;101.38
66835;HTU21D;53743;51.100;5.874;2022-12-19T01:34:41;3.15;101.20
66835;HTU21D;53743;51.100;5.874;2022-12-19T01:35:42;3.15;101.17
66835;HTU21D;53743;51.100;5.874;2022-12-19T01:36:44;3.16;101.33
66835;HTU21D;53743;51.100;5.874;2022-12-19T01:37:45;3.19;101.31
66835;HTU21D;53743;51.100;5.874;2022-12-19T01:38:45;3.20;101.31
66835;HTU21D;53743;51.100;5.874;2022-12-19T01:39:46;3.26;101.15
66835;HTU21D;53743;51.100;5.874;2022-12-19T01:40:52;3.27;101.12
66835;HTU21D;53743;51.100;5.874;2022-12-19T01:41:53;3.30;101.16
66835;HTU21D;53743;51.100;5.874;2022-12-19T01:42:54;3.34;101.09
66835;HTU21D;53743;51.100;5.874;2022-12-19T01:44:03;3.38;100.98
66835;HTU21D;53743;51.100;5.874;2022-12-19T01:46:13;3.43;100.62
66835;HTU21D;53743;51.100;5.874;2022-12-19T01:47:14;3.49;100.51
66835;HTU21D;53743;51.100;5.874;2022-12-19T01:48:25;3.53;100.19
66835;HTU21D;53743;51.100;5.874;2022-12-19T01:49:34;3.54;100.13
66835;HTU21D;53743;51.100;5.874;2022-12-19T01:50:58;3.55;100.16
66835;HTU21D;53743;51.100;5.874;2022-12-19T01:52:03;3.56;99.99
66835;HTU21D;53743;51.100;5.874;2022-12-19T01:53:09;3.58;100.19
66835;HTU21D;53743;51.100;5.874;2022-12-19T01:54:19;3.56;100.19
66835;HTU21D;53743;51.100;5.874;2022-12-19T01:55:21;3.59;100.26
66835;HTU21D;53743;51.100;5.874;2022-12-19T01:56:29;3.64;100.16
66835;HTU21D;53743;51.100;5.874;2022-12-19T01:57:31;3.70;99.74
66835;HTU21D;53743;51.100;5.874;2022-12-19T01:58:33;3.72;99.93
66835;HTU21D;53743;51.100;5.874;2022-12-19T01:59:45;3.75;99.72
66835;HTU21D;53743;51.100;5.874;2022-12-19T02:00:47;3.78;99.87
66835;HTU21D;53743;51.100;5.874;2022-12-19T02:01:51;3.79;99.53
66835;HTU21D;53743;51.100;5.874;2022-12-19T02:03:02;3.83;99.63
66835;HTU21D;53743;51.100;5.874;2022-12-19T02:04:06;3.83;99.66
66835;HTU21D;53743;51.100;5.874;2022-12-19T02:05:08;3.85;99.57
66835;HTU21D;53743;51.100;5.874;2022-12-19T02:06:11;3.90;99.47
66835;HTU21D;53743;51.100;5.874;2022-12-19T02:07:17;3.90;99.31
66835;HTU21D;53743;51.100;5.874;2022-12-19T02:08:20;3.93;99.43
66835;HTU21D;53743;51.100;5.874;2022-12-19T02:09:21;3.93;99.34
66835;HTU21D;53743;51.100;5.874;2022-12-19T02:10:25;3.99;99.38
66835;HTU21D;53743;51.100;5.874;2022-12-19T02:11:26;4.01;99.10
66835;HTU21D;53743;51.100;5.874;2022-12-19T02:12:31;4.02;99.18
66835;HTU21D;53743;51.100;5.874;2022-12-19T02:13:33;4.05;99.06
66835;HTU21D;53743;51.100;5.874;2022-12-19T02:14:34;4.09;99.09
66835;HTU21D;53743;51.100;5.874;2022-12-19T02:16:06;4.14;98.93
66835;HTU21D;53743;51.100;5.874;2022-12-19T02:17:15;4.16;98.90
66835;HTU21D;53743;51.100;5.874;2022-12-19T02:20:17;4.22;98.85
66835;HTU21D;53743;51.100;5.874;2022-12-19T02:21:50;4.28;98.84
66835;HTU21D;53743;51.100;5.874;2022-12-19T02:23:35;4.29;98.74
66835;HTU21D;53743;51.100;5.874;2022-12-19T02:25:14;4.36;98.77
66835;HTU21D;53743;51.100;5.874;2022-12-19T02:30:44;4.47;98.83
66835;HTU21D;53743;51.100;5.874;2022-12-19T02:33:09;4.54;98.89
66835;HTU21D;53743;51.100;5.874;2022-12-19T02:34:46;4.60;0.00
66835;HTU21D;53743;51.100;5.874;2022-12-19T02:35:56;4.65;98.96
66835;HTU21D;53743;51.100;5.874;2022-12-19T02:37:04;4.67;98.84
66835;HTU21D;53743;51.100;5.874;2022-12-19T02:38:15;4.71;98.79
66835;HTU21D;53743;51.100;5.874;2022-12-19T02:39:29;4.74;98.80
66835;HTU21D;53743;51.100;5.874;2022-12-19T02:40:42;4.75;98.90
66835;HTU21D;53743;51.100;5.874;2022-12-19T02:41:54;4.75;99.03
66835;HTU21D;53743;51.100;5.874;2022-12-19T02:42:59;4.78;98.98
66835;HTU21D;53743;51.100;5.874;2022-12-19T02:44:02;4.82;99.56
66835;HTU21D;53743;51.100;5.874;2022-12-19T02:45:07;4.84;99.29
66835;HTU21D;53743;51.100;5.874;2022-12-19T02:46:10;4.88;99.42
66835;HTU21D;53743;51.100;5.874;2022-12-19T02:47:13;4.91;99.26
66835;HTU21D;53743;51.100;5.874;2022-12-19T02:48:17;4.93;99.63
66835;HTU21D;53743;51.100;5.874;2022-12-19T02:49:18;5.02;99.80
66835;HTU21D;53743;51.100;5.874;2022-12-19T02:50:19;5.06;100.18
66835;HTU21D;53743;51.100;5.874;2022-12-19T02:51:19;5.10;101.66
66835;HTU21D;53743;51.100;5.874;2022-12-19T02:53:25;5.25;101.08
66835;HTU21D;53743;51.100;5.874;2022-12-19T02:54:30;5.31;101.53
66835;HTU21D;53743;51.100;5.874;2022-12-19T02:56:58;5.45;101.36
66835;HTU21D;53743;51.100;5.874;2022-12-19T03:00:58;5.62;101.52
66835;HTU21D;53743;51.100;5.874;2022-12-19T03:03:15;5.66;101.86
66835;HTU21D;53743;51.100;5.874;2022-12-19T03:06:49;5.83;102.21
66835;HTU21D;53743;51.100;5.874;2022-12-19T03:10:25;5.97;102.19
66835;HTU21D;53743;51.100;5.874;2022-12-19T03:11:35;0.00;102.32
66835;HTU21D;53743;51.100;5.874;2022-12-19T03:13:06;6.01;102.22
66835;HTU21D;53743;51.100;5.874;2022-12-19T03:14:11;6.05;102.46
66835;HTU21D;53743;51.100;5.874;2022-12-19T03:15:14;6.07;102.31
66835;HTU21D;53743;51.100;5.874;2022-12-19T03:16:15;6.08;102.44
66835;HTU21D;53743;51.100;5.874;2022-12-19T03:17:16;6.11;102.73
66835;HTU21D;53743;51.100;5.874;2022-12-19T03:18:20;6.14;102.68
66835;HTU21D;53743;51.100;5.874;2022-12-19T03:19:22;6.11;103.84
66835;HTU21D;53743;51.100;5.874;2022-12-19T03:21:43;6.22;103.32
66835;HTU21D;53743;51.100;5.874;2022-12-19T03:22:44;6.23;103.33
66835;HTU21D;53743;51.100;5.874;2022-12-19T03:23:46;6.27;102.99
66835;HTU21D;53743;51.100;5.874;2022-12-19T03:24:47;6.28;103.19
66835;HTU21D;53743;51.100;5.874;2022-12-19T03:25:52;6.34;103.22
66835;HTU21D;53743;51.100;5.874;2022-12-19T03:27:15;6.34;103.74
66835;HTU21D;53743;51.100;5.874;2022-12-19T03:28:49;6.37;103.85
66835;HTU21D;53743;51.100;5.874;2022-12-19T03:30:15;6.42;103.31
66835;HTU21D;53743;51.100;5.874;2022-12-19T03:31:19;6.44;103.59
66835;HTU21D;53743;51.100;5.874;2022-12-19T03:32:23;6.44;104.23
66835;HTU21D;53743;51.100;5.874;2022-12-19T03:33:30;6.51;103.94
66835;HTU21D;53743;51.100;5.874;2022-12-19T03:35:42;6.50;104.31
66835;HTU21D;53743;51.100;5.874;2022-12-19T03:36:52;6.54;104.21
66835;HTU21D;53743;51.100;5.874;2022-12-19T03:37:57;6.56;104.19
66835;HTU21D;53743;51.100;5.874;2022-12-19T03:39:03;6.60;104.02
66835;HTU21D;53743;51.100;5.874;2022-12-19T03:40:10;6.58;104.09
66835;HTU21D;53743;51.100;5.874;2022-12-19T03:41:14;6.60;104.15
66835;HTU21D;53743;51.100;5.874;2022-12-19T03:42:18;6.65;104.60
66835;HTU21D;53743;51.100;5.874;2022-12-19T03:43:45;6.69;104.76
66835;HTU21D;53743;51.100;5.874;2022-12-19T03:44:49;6.72;104.77
66835;HTU21D;53743;51.100;5.874;2022-12-19T03:46:04;6.76;104.66
66835;HTU21D;53743;51.100;5.874;2022-12-19T03:48:51;6.80;104.50
66835;HTU21D;53743;51.100;5.874;2022-12-19T03:49:53;6.81;104.56
66835;HTU21D;53743;51.100;5.874;2022-12-19T03:51:15;6.88;104.15
66835;HTU21D;53743;51.100;5.874;2022-12-19T03:52:43;6.88;104.16
66835;HTU21D;53743;51.100;5.874;2022-12-19T03:55:08;6.93;104.40
66835;HTU21D;53743;51.100;5.874;2022-12-19T03:56:39;6.95;104.66
66835;HTU21D;53743;51.100;5.874;2022-12-19T03:57:58;6.97;104.37
66835;HTU21D;53743;51.100;5.874;2022-12-19T04:00:29;6.95;105.47
66835;HTU21D;53743;51.100;5.874;2022-12-19T04:01:33;7.02;104.92
66835;HTU21D;53743;51.100;5.874;2022-12-19T04:02:37;7.02;104.57
66835;HTU21D;53743;51.100;5.874;2022-12-19T04:03:39;7.04;104.39
66835;HTU21D;53743;51.100;5.874;2022-12-19T04:04:43;7.04;104.56
66835;HTU21D;53743;51.100;5.874;2022-12-19T04:05:47;7.07;104.43
66835;HTU21D;53743;51.100;5.874;2022-12-19T04:06:50;7.07;104.35
66835;HTU21D;53743;51.100;5.874;2022-12-19T04:07:55;7.07;104.94
66835;HTU21D;53743;51.100;5.874;2022-12-19T04:08:59;7.10;104.80
66835;HTU21D;53743;51.100;5.874;2022-12-19T04:10:04;7.09;104.70
66835;HTU21D;53743;51.100;5.874;2022-12-19T04:11:15;7.08;104.85
66835;HTU21D;53743;51.100;5.874;2022-12-19T04:12:22;7.07;104.69
66835;HTU21D;53743;51.100;5.874;2022-12-19T04:13:39;7.11;104.60
66835;HTU21D;53743;51.100;5.874;2022-12-19T04:14:42;7.08;105.02
66835;HTU21D;53743;51.100;5.874;2022-12-19T04:16:01;7.14;104.77
66835;HTU21D;53743;51.100;5.874;2022-12-19T04:18:39;7.18;104.84
66835;HTU21D;53743;51.100;5.874;2022-12-19T04:19:49;7.19;104.79
66835;HTU21D;53743;51.100;5.874;2022-12-19T04:21:00;7.19;104.68
66835;HTU21D;53743;51.100;5.874;2022-12-19T04:22:20;7.19;104.67
66835;HTU21D;53743;51.100;5.874;2022-12-19T04:23:30;7.19;104.80
66835;HTU21D;53743;51.100;5.874;2022-12-19T04:24:36;7.22;104.89
66835;HTU21D;53743;51.100;5.874;2022-12-19T04:25:48;7.24;104.63
66835;HTU21D;53743;51.100;5.874;2022-12-19T04:26:53;7.25;104.72
66835;HTU21D;53743;51.100;5.874;2022-12-19T04:28:25;7.25;104.66
66835;HTU21D;53743;51.100;5.874;2022-12-19T04:29:33;7.20;105.06
66835;HTU21D;53743;51.100;5.874;2022-12-19T04:30:37;7.26;104.43
66835;HTU21D;53743;51.100;5.874;2022-12-19T04:31:38;7.25;104.81
66835;HTU21D;53743;51.100;5.874;2022-12-19T04:32:43;7.28;104.52
66835;HTU21D;53743;51.100;5.874;2022-12-19T04:33:45;7.29;104.43
66835;HTU21D;53743;51.100;5.874;2022-12-19T04:34:45;7.31;104.28
66835;HTU21D;53743;51.100;5.874;2022-12-19T04:35:46;7.34;104.20
66835;HTU21D;53743;51.100;5.874;2022-12-19T04:36:49;7.37;104.27
66835;HTU21D;53743;51.100;5.874;2022-12-19T04:37:51;7.35;104.35
66835;HTU21D;53743;51.100;5.874;2022-12-19T04:38:52;7.37;104.23
66835;HTU21D;53743;51.100;5.874;2022-12-19T04:39:52;7.37;104.17
66835;HTU21D;53743;51.100;5.874;2022-12-19T04:40:53;7.39;104.69
66835;HTU21D;53743;51.100;5.874;2022-12-19T04:41:54;7.37;104.86
66835;HTU21D;53743;51.100;5.874;2022-12-19T04:42:54;7.37;104.92
66835;HTU21D;53743;51.100;5.874;2022-12-19T04:43:55;7.35;104.88
66835;HTU21D;53743;51.100;5.874;2022-12-19T04:44:55;7.41;104.47
66835;HTU21D;53743;51.100;5.874;2022-12-19T04:45:56;7.43;104.28
66835;HTU21D;53743;51.100;5.874;2022-12-19T04:46:57;7.40;104.73
66835;HTU21D;53743;51.100;5.874;2022-12-19T04:47:57;7.43;104.58
66835;HTU21D;53743;51.100;5.874;2022-12-19T04:48:58;7.41;104.91
66835;HTU21D;53743;51.100;5.874;2022-12-19T04:49:58;7.44;104.95
66835;HTU21D;53743;51.100;5.874;2022-12-19T04:50:59;7.46;104.60
66835;HTU21D;53743;51.100;5.874;2022-12-19T04:52:00;7.47;104.45
66835;HTU21D;53743;51.100;5.874;2022-12-19T04:53:00;7.50;104.22
66835;HTU21D;53743;51.100;5.874;2022-12-19T04:54:01;7.49;104.57
66835;HTU21D;53743;51.100;5.874;2022-12-19T04:55:01;7.50;104.52
66835;HTU21D;53743;51.100;5.874;2022-12-19T04:56:05;7.52;104.46
66835;HTU21D;53743;51.100;5.874;2022-12-19T04:57:05;7.52;104.63
66835;HTU21D;53743;51.100;5.874;2022-12-19T04:58:06;7.55;104.19
66835;HTU21D;53743;51.100;5.874;2022-12-19T04:59:07;7.57;104.31
66835;HTU21D;53743;51.100;5.874;2022-12-19T05:00:08;7.57;104.14
66835;HTU21D;53743;51.100;5.874;2022-12-19T05:01:09;7.55;104.33
66835;HTU21D;53743;51.100;5.874;2022-12-19T05:02:09;7.57;104.40
66835;HTU21D;53743;51.100;5.874;2022-12-19T05:03:10;7.56;104.34
66835;HTU21D;53743;51.100;5.874;2022-12-19T05:04:11;7.60;104.25
66835;HTU21D;53743;51.100;5.874;2022-12-19T05:05:11;7.63;104.02
66835;HTU21D;53743;51.100;5.874;2022-12-19T05:06:13;7.60;104.12
66835;HTU21D;53743;51.100;5.874;2022-12-19T05:07:14;7.61;104.12
66835;HTU21D;53743;51.100;5.874;2022-12-19T05:08:18;7.63;104.12
66835;HTU21D;53743;51.100;5.874;2022-12-19T05:09:18;7.62;104.48
66835;HTU21D;53743;51.100;5.874;2022-12-19T05:10:19;7.65;104.32
66835;HTU21D;53743;51.100;5.874;2022-12-19T05:11:20;7.61;104.50
66835;HTU21D;53743;51.100;5.874;2022-12-19T05:12:20;7.61;104.73
66835;HTU21D;53743;51.100;5.874;2022-12-19T05:13:21;7.61;104.74
66835;HTU21D;53743;51.100;5.874;2022-12-19T05:14:21;7.62;104.93
66835;HTU21D;53743;51.100;5.874;2022-12-19T05:15:22;7.61;105.09
66835;HTU21D;53743;51.100;5.874;2022-12-19T05:16:23;7.64;104.79
66835;HTU21D;53743;51.100;5.874;2022-12-19T05:17:23;7.64;104.71
66835;HTU21D;53743;51.100;5.874;2022-12-19T05:18:25;7.68;104.60
66835;HTU21D;53743;51.100;5.874;2022-12-19T05:19:25;7.71;104.40
66835;HTU21D;53743;51.100;5.874;2022-12-19T05:20:26;7.69;104.44
66835;HTU21D;53743;51.100;5.874;2022-12-19T05:21:27;7.71;104.76
66835;HTU21D;53743;51.100;5.874;2022-12-19T05:22:27;7.70;104.96
66835;HTU21D;53743;51.100;5.874;2022-12-19T05:23:28;7.71;104.82
66835;HTU21D;53743;51.100;5.874;2022-12-19T05:24:29;7.71;104.63
66835;HTU21D;53743;51.100;5.874;2022-12-19T05:25:30;7.65;105.08
66835;HTU21D;53743;51.100;5.874;2022-12-19T05:26:30;7.71;105.02
66835;HTU21D;53743;51.100;5.874;2022-12-19T05:27:31;7.73;104.66
66835;HTU21D;53743;51.100;5.874;2022-12-19T05:28:33;7.73;104.63
66835;HTU21D;53743;51.100;5.874;2022-12-19T05:29:33;7.73;104.70
66835;HTU21D;53743;51.100;5.874;2022-12-19T05:30:34;7.75;104.98
66835;HTU21D;53743;51.100;5.874;2022-12-19T05:31:34;7.77;104.69
66835;HTU21D;53743;51.100;5.874;2022-12-19T05:32:35;7.76;104.98
66835;HTU21D;53743;51.100;5.874;2022-12-19T05:33:36;7.81;104.82
66835;HTU21D;53743;51.100;5.874;2022-12-19T05:34:37;7.83;104.66
66835;HTU21D;53743;51.100;5.874;2022-12-19T05:35:37;7.86;104.59
66835;HTU21D;53743;51.100;5.874;2022-12-19T05:36:38;7.87;104.55
66835;HTU21D;53743;51.100;5.874;2022-12-19T05:37:40;7.90;104.35
66835;HTU21D;53743;51.100;5.874;2022-12-19T05:38:41;7.89;104.44
66835;HTU21D;53743;51.100;5.874;2022-12-19T05:39:41;7.90;104.44
66835;HTU21D;53743;51.100;5.874;2022-12-19T05:40:42;7.86;104.66
66835;HTU21D;53743;51.100;5.874;2022-12-19T05:41:43;7.91;104.53
66835;HTU21D;53743;51.100;5.874;2022-12-19T05:42:43;7.94;104.60
66835;HTU21D;53743;51.100;5.874;2022-12-19T05:43:47;7.94;104.50
66835;HTU21D;53743;51.100;5.874;2022-12-19T05:44:48;7.96;104.40
66835;HTU21D;53743;51.100;5.874;2022-12-19T05:45:49;7.94;104.63
66835;HTU21D;53743;51.100;5.874;2022-12-19T05:46:49;7.91;104.95
66835;HTU21D;53743;51.100;5.874;2022-12-19T05:47:50;7.96;104.82
66835;HTU21D;53743;51.100;5.874;2022-12-19T05:48:50;8.00;104.47
66835;HTU21D;53743;51.100;5.874;2022-12-19T05:49:51;8.02;104.18
66835;HTU21D;53743;51.100;5.874;2022-12-19T05:50:51;8.02;104.20
66835;HTU21D;53743;51.100;5.874;2022-12-19T05:51:52;8.04;104.29
66835;HTU21D;53743;51.100;5.874;2022-12-19T05:52:52;8.04;104.31
66835;HTU21D;53743;51.100;5.874;2022-12-19T05:53:53;8.04;104.08
66835;HTU21D;53743;51.100;5.874;2022-12-19T05:54:54;0.00;104.09
66835;HTU21D;53743;51.100;5.874;2022-12-19T05:56:09;8.04;104.13
66835;HTU21D;53743;51.100;5.874;2022-12-19T05:57:10;8.08;103.95
66835;HTU21D;53743;51.100;5.874;2022-12-19T05:58:10;8.08;103.96
66835;HTU21D;53743;51.100;5.874;2022-12-19T05:59:11;8.06;103.88
66835;HTU21D;53743;51.100;5.874;2022-12-19T06:00:12;8.07;103.75
66835;HTU21D;53743;51.100;5.874;2022-12-19T06:02:19;8.11;103.61
66835;HTU21D;53743;51.100;5.874;2022-12-19T06:03:20;0.00;103.76
66835;HTU21D;53743;51.100;5.874;2022-12-19T06:04:21;8.14;103.60
66835;HTU21D;53743;51.100;5.874;2022-12-19T06:05:22;8.13;103.79
66835;HTU21D;53743;51.100;5.874;2022-12-19T06:06:24;8.12;103.65
66835;HTU21D;53743;51.100;5.874;2022-12-19T06:07:25;8.09;104.04
66835;HTU21D;53743;51.100;5.874;2022-12-19T06:08:26;8.12;103.83
66835;HTU21D;53743;51.100;5.874;2022-12-19T06:09:26;8.11;103.81
66835;HTU21D;53743;51.100;5.874;2022-12-19T06:10:27;8.12;104.10
66835;HTU21D;53743;51.100;5.874;2022-12-19T06:11:28;8.15;103.94
66835;HTU21D;53743;51.100;5.874;2022-12-19T06:12:28;8.19;103.84
66835;HTU21D;53743;51.100;5.874;2022-12-19T06:13:30;8.19;103.69
66835;HTU21D;53743;51.100;5.874;2022-12-19T06:14:30;8.18;103.83
66835;HTU21D;53743;51.100;5.874;2022-12-19T06:15:31;8.20;103.70
66835;HTU21D;53743;51.100;5.874;2022-12-19T06:16:31;8.24;103.68
66835;HTU21D;53743;51.100;5.874;2022-12-19T06:17:32;8.22;103.85
66835;HTU21D;53743;51.100;5.874;2022-12-19T06:18:34;8.26;103.63
66835;HTU21D;53743;51.100;5.874;2022-12-19T06:19:34;8.23;103.50
66835;HTU21D;53743;51.100;5.874;2022-12-19T06:20:35;8.23;103.77
66835;HTU21D;53743;51.100;5.874;2022-12-19T06:21:35;8.23;103.92
66835;HTU21D;53743;51.100;5.874;2022-12-19T06:22:36;8.24;103.95
66835;HTU21D;53743;51.100;5.874;2022-12-19T06:23:37;8.28;103.68
66835;HTU21D;53743;51.100;5.874;2022-12-19T06:24:38;8.32;103.53
66835;HTU21D;53743;51.100;5.874;2022-12-19T06:25:38;0.00;0.00
66835;HTU21D;53743;51.100;5.874;2022-12-19T06:26:39;8.32;103.75
66835;HTU21D;53743;51.100;5.874;2022-12-19T06:27:39;8.33;103.66
66835;HTU21D;53743;51.100;5.874;2022-12-19T06:28:40;8.35;103.61
66835;HTU21D;53743;51.100;5.874;2022-12-19T06:29:40;8.33;103.62
66835;HTU21D;53743;51.100;5.874;2022-12-19T06:30:41;8.35;103.64
66835;HTU21D;53743;51.100;5.874;2022-12-19T06:31:42;8.35;103.63
66835;HTU21D;53743;51.100;5.874;2022-12-19T06:32:43;8.36;103.57
66835;HTU21D;53743;51.100;5.874;2022-12-19T06:33:44;8.34;103.65
66835;HTU21D;53743;51.100;5.874;2022-12-19T06:34:44;8.41;103.57
66835;HTU21D;53743;51.100;5.874;2022-12-19T06:35:45;8.39;103.54
66835;HTU21D;53743;51.100;5.874;2022-12-19T06:36:45;8.42;103.50
66835;HTU21D;53743;51.100;5.874;2022-12-19T06:37:47;8.44;103.37
66835;HTU21D;53743;51.100;5.874;2022-12-19T06:38:49;8.41;103.45
66835;HTU21D;53743;51.100;5.874;2022-12-19T06:39:50;8.43;103.66
66835;HTU21D;53743;51.100;5.874;2022-12-19T06:40:50;8.47;103.54
66835;HTU21D;53743;51.100;5.874;2022-12-19T06:42:10;8.43;103.37
66835;HTU21D;53743;51.100;5.874;2022-12-19T06:43:24;8.43;103.63
66835;HTU21D;53743;51.100;5.874;2022-12-19T06:44:25;8.37;103.77
66835;HTU21D;53743;51.100;5.874;2022-12-19T06:45:26;8.44;103.51
66835;HTU21D;53743;51.100;5.874;2022-12-19T06:46:28;8.39;103.51
66835;HTU21D;53743;51.100;5.874;2022-12-19T06:47:28;8.43;103.55
66835;HTU21D;53743;51.100;5.874;2022-12-19T06:48:29;8.46;103.38
66835;HTU21D;53743;51.100;5.874;2022-12-19T06:49:29;8.47;103.30
66835;HTU21D;53743;51.100;5.874;2022-12-19T06:50:30;8.45;103.12
66835;HTU21D;53743;51.100;5.874;2022-12-19T06:51:30;8.42;103.27
66835;HTU21D;53743;51.100;5.874;2022-12-19T06:52:31;8.43;103.41
66835;HTU21D;53743;51.100;5.874;2022-12-19T06:53:32;8.42;103.36
66835;HTU21D;53743;51.100;5.874;2022-12-19T06:54:32;8.46;103.39
66835;HTU21D;53743;51.100;5.874;2022-12-19T06:55:35;8.47;103.05
66835;HTU21D;53743;51.100;5.874;2022-12-19T06:56:38;8.47;103.18
66835;HTU21D;53743;51.100;5.874;2022-12-19T06:57:39;8.50;103.17
66835;HTU21D;53743;51.100;5.874;2022-12-19T06:58:45;8.51;103.02
66835;HTU21D;53743;51.100;5.874;2022-12-19T06:59:46;8.49;103.09
66835;HTU21D;53743;51.100;5.874;2022-12-19T07:00:46;8.49;102.89
66835;HTU21D;53743;51.100;5.874;2022-12-19T07:01:58;8.52;102.91
66835;HTU21D;53743;51.100;5.874;2022-12-19T07:03:03;8.55;102.83
66835;HTU21D;53743;51.100;5.874;2022-12-19T07:04:09;8.58;102.60
66835;HTU21D;53743;51.100;5.874;2022-12-19T07:05:12;8.51;102.70
66835;HTU21D;53743;51.100;5.874;2022-12-19T07:06:13;8.49;102.89
66835;HTU21D;53743;51.100;5.874;2022-12-19T07:07:14;8.50;102.85
66835;HTU21D;53743;51.100;5.874;2022-12-19T07:08:15;8.50;102.79